sensor_id;sensor_type;location;lat;lon;timestamp;pressure;altitude;pressure_sealevel;temperature;humidity
61037;BME280;57313;47.040;15.498;2022-11-20T00:02:15;96410.59;;;0.77;100.00
61037;BME280;57313;47.040;15.498;2022-11-20T00:04:44;96407.38;;;0.71;100.00
61037;BME280;57313;47.040;15.498;2022-11-20T00:07:11;96414.38;;;0.66;100.00
61037;BME280;57313;47.040;15.498;2022-11-20T00:09:38;96409.31;;;0.65;100.00
61037;BME280;57313;47.040;15.498;2022-11-20T00:12:06;96410.38;;;0.59;100.00
61037;BME280;57313;47.040;15.498;2022-11-20T00:14:33;96427.34;;;0.62;100.00
61037;BME280;57313;47.040;15.498;2022-11-20T00:17:00;96417.25;;;0.57;100.00
61037;BME280;57313;47.040;15.498;2022-11-20T00:19:27;96431.75;;;0.58;100.00
61037;BME280;57313;47.040;15.498;2022-11-20T00:21:56;96439.22;;;0.64;100.00
61037;BME280;57313;47.040;15.498;2022-11-20T00:24:23;96434.06;;;0.66;100.00
61037;BME280;57313;47.040;15.498;2022-11-20T00:26:50;96435.84;;;0.64;100.00
61037;BME280;57313;47.040;15.498;2022-11-20T00:29:17;96452.94;;;0.63;100.00
61037;BME280;57313;47.040;15.498;2022-11-20T00:31:45;96455.28;;;0.69;100.00
61037;BME280;57313;47.040;15.498;2022-11-20T00:34:13;96451.78;;;0.72;100.00
61037;BME280;57313;47.040;15.498;2022-11-20T00:36:40;96461.97;;;0.74;100.00
61037;BME280;57313;47.040;15.498;2022-11-20T00:39:09;96467.00;;;0.77;100.00
61037;BME280;57313;47.040;15.498;2022-11-20T00:41:36;96465.25;;;0.77;100.00
61037;BME280;57313;47.040;15.498;2022-11-20T00:44:04;96470.28;;;0.80;100.00
61037;BME280;57313;47.040;15.498;2022-11-20T00:46:32;96465.94;;;0.82;100.00
61037;BME280;57313;47.040;15.498;2022-11-20T00:48:59;96463.19;;;0.87;100.00
61037;BME280;57313;47.040;15.498;2022-11-20T00:51:27;96458.88;;;0.89;100.00
61037;BME280;57313;47.040;15.498;2022-11-20T00:53:56;96453.69;;;0.91;100.00
61037;BME280;57313;47.040;15.498;2022-11-20T00:56:25;96471.41;;;0.97;100.00
61037;BME280;57313;47.040;15.498;2022-11-20T00:58:53;96471.38;;;0.98;100.00
61037;BME280;57313;47.040;15.498;2022-11-20T01:01:22;96481.50;;;1.01;100.00
61037;BME280;57313;47.040;15.498;2022-11-20T01:03:51;96478.94;;;1.01;100.00
61037;BME280;57313;47.040;15.498;2022-11-20T01:06:20;96472.09;;;1.02;100.00
61037;BME280;57313;47.040;15.498;2022-11-20T01:08:50;96468.69;;;1.01;100.00
61037;BME280;57313;47.040;15.498;2022-11-20T01:11:20;96466.13;;;1.01;100.00
61037;BME280;57313;47.040;15.498;2022-11-20T01:13:50;96483.06;;;1.05;100.00
61037;BME280;57313;47.040;15.498;2022-11-20T01:16:20;96475.53;;;1.01;100.00
61037;BME280;57313;47.040;15.498;2022-11-20T01:18:49;96473.75;;;1.03;100.00
61037;BME280;57313;47.040;15.498;2022-11-20T01:21:19;96474.59;;;1.03;100.00
61037;BME280;57313;47.040;15.498;2022-11-20T01:23:48;96475.38;;;1.05;100.00
61037;BME280;57313;47.040;15.498;2022-11-20T01:26:18;96476.06;;;1.11;100.00
61037;BME280;57313;47.040;15.498;2022-11-20T01:28:46;96462.44;;;1.08;100.00
61037;BME280;57313;47.040;15.498;2022-11-20T01:31:17;96469.28;;;1.08;100.00
61037;BME280;57313;47.040;15.498;2022-11-20T01:33:46;96472.78;;;1.05;100.00
61037;BME280;57313;47.040;15.498;2022-11-20T01:36:14;96471.16;;;1.04;100.00
61037;BME280;57313;47.040;15.498;2022-11-20T01:38:42;96464.28;;;1.05;100.00
61037;BME280;57313;47.040;15.498;2022-11-20T01:41:10;96457.41;;;1.05;100.00
61037;BME280;57313;47.040;15.498;2022-11-20T01:43:38;96459.09;;;1.06;100.00
61037;BME280;57313;47.040;15.498;2022-11-20T01:46:16;96469.41;;;1.05;100.00
61037;BME280;57313;47.040;15.498;2022-11-20T01:48:48;96471.31;;;1.00;100.00
61037;BME280;57313;47.040;15.498;2022-11-20T01:51:21;96479.28;;;0.92;100.00
61037;BME280;57313;47.040;15.498;2022-11-20T01:53:54;96465.81;;;0.85;100.00
61037;BME280;57313;47.040;15.498;2022-11-20T01:56:23;96466.78;;;0.83;100.00
61037;BME280;57313;47.040;15.498;2022-11-20T01:58:56;96462.59;;;0.80;100.00
61037;BME280;57313;47.040;15.498;2022-11-20T02:01:26;96457.56;;;0.77;100.00
61037;BME280;57313;47.040;15.498;2022-11-20T02:03:54;96457.50;;;0.79;100.00
61037;BME280;57313;47.040;15.498;2022-11-20T02:06:24;96459.09;;;0.83;100.00
61037;BME280;57313;47.040;15.498;2022-11-20T02:08:53;96456.38;;;0.87;100.00
61037;BME280;57313;47.040;15.498;2022-11-20T02:11:22;96461.59;;;0.84;100.00
61037;BME280;57313;47.040;15.498;2022-11-20T02:13:50;96449.00;;;0.78;100.00
61037;BME280;57313;47.040;15.498;2022-11-20T02:16:21;96459.97;;;0.82;100.00
61037;BME280;57313;47.040;15.498;2022-11-20T02:18:53;96461.00;;;0.76;100.00
61037;BME280;57313;47.040;15.498;2022-11-20T02:21:28;96453.41;;;0.75;100.00
61037;BME280;57313;47.040;15.498;2022-11-20T02:24:09;96453.47;;;0.73;100.00
61037;BME280;57313;47.040;15.498;2022-11-20T02:26:43;96445.78;;;0.73;100.00
61037;BME280;57313;47.040;15.498;2022-11-20T02:29:12;96443.16;;;0.75;100.00
61037;BME280;57313;47.040;15.498;2022-11-20T02:31:42;96442.41;;;0.71;100.00
61037;BME280;57313;47.040;15.498;2022-11-20T02:34:10;96448.44;;;0.70;100.00
61037;BME280;57313;47.040;15.498;2022-11-20T02:36:39;96451.88;;;0.69;100.00
61037;BME280;57313;47.040;15.498;2022-11-20T02:39:11;96452.66;;;0.71;100.00
61037;BME280;57313;47.040;15.498;2022-11-20T02:41:40;96449.94;;;0.76;100.00
61037;BME280;57313;47.040;15.498;2022-11-20T02:44:07;96454.94;;;0.79;100.00
61037;BME280;57313;47.040;15.498;2022-11-20T02:46:34;96447.09;;;0.83;100.00
61037;BME280;57313;47.040;15.498;2022-11-20T02:49:03;96440.13;;;0.87;100.00
61037;BME280;57313;47.040;15.498;2022-11-20T02:51:31;96431.50;;;0.89;100.00
61037;BME280;57313;47.040;15.498;2022-11-20T02:53:59;96433.97;;;0.93;100.00
61037;BME280;57313;47.040;15.498;2022-11-20T02:56:28;96423.66;;;0.94;100.00
61037;BME280;57313;47.040;15.498;2022-11-20T02:58:56;96432.09;;;0.96;100.00
61037;BME280;57313;47.040;15.498;2022-11-20T03:01:23;96417.56;;;0.97;100.00
61037;BME280;57313;47.040;15.498;2022-11-20T03:03:51;96415.84;;;0.97;100.00
61037;BME280;57313;47.040;15.498;2022-11-20T03:06:19;96406.47;;;0.96;100.00
61037;BME280;57313;47.040;15.498;2022-11-20T03:08:46;96409.84;;;0.98;100.00
61037;BME280;57313;47.040;15.498;2022-11-20T03:11:14;96412.41;;;0.98;100.00
61037;BME280;57313;47.040;15.498;2022-11-20T03:13:43;96422.72;;;0.97;100.00
61037;BME280;57313;47.040;15.498;2022-11-20T03:16:12;96423.75;;;0.91;100.00
61037;BME280;57313;47.040;15.498;2022-11-20T03:18:41;96432.72;;;0.79;100.00
61037;BME280;57313;47.040;15.498;2022-11-20T03:21:09;96436.47;;;0.70;100.00
61037;BME280;57313;47.040;15.498;2022-11-20T03:23:38;96428.88;;;0.67;100.00
61037;BME280;57313;47.040;15.498;2022-11-20T03:26:12;96434.72;;;0.71;100.00
61037;BME280;57313;47.040;15.498;2022-11-20T03:28:47;96419.22;;;0.74;100.00
61037;BME280;57313;47.040;15.498;2022-11-20T03:31:16;96433.69;;;0.77;100.00
61037;BME280;57313;47.040;15.498;2022-11-20T03:33:44;96435.16;;;0.82;100.00
61037;BME280;57313;47.040;15.498;2022-11-20T03:36:13;96433.47;;;0.83;100.00
61037;BME280;57313;47.040;15.498;2022-11-20T03:38:41;96418.97;;;0.82;100.00
61037;BME280;57313;47.040;15.498;2022-11-20T03:41:10;96418.84;;;0.85;100.00
61037;BME280;57313;47.040;15.498;2022-11-20T03:43:38;96419.63;;;0.87;100.00
61037;BME280;57313;47.040;15.498;2022-11-20T03:46:07;96427.31;;;0.87;100.00
61037;BME280;57313;47.040;15.498;2022-11-20T03:48:35;96423.81;;;0.89;100.00
61037;BME280;57313;47.040;15.498;2022-11-20T03:51:09;96422.06;;;0.90;100.00
61037;BME280;57313;47.040;15.498;2022-11-20T03:53:38;96410.38;;;0.83;100.00
61037;BME280;57313;47.040;15.498;2022-11-20T03:56:06;96422.66;;;0.75;100.00
61037;BME280;57313;47.040;15.498;2022-11-20T03:58:34;96426.00;;;0.77;100.00
61037;BME280;57313;47.040;15.498;2022-11-20T04:01:08;96411.44;;;0.77;100.00
61037;BME280;57313;47.040;15.498;2022-11-20T04:03:37;96411.38;;;0.79;100.00
61037;BME280;57313;47.040;15.498;2022-11-20T04:06:06;96417.16;;;0.84;100.00
61037;BME280;57313;47.040;15.498;2022-11-20T04:08:35;96404.19;;;0.88;100.00
61037;BME280;57313;47.040;15.498;2022-11-20T04:11:10;96411.94;;;0.87;100.00
61037;BME280;57313;47.040;15.498;2022-11-20T04:13:38;96417.06;;;0.87;100.00
61037;BME280;57313;47.040;15.498;2022-11-20T04:16:08;96404.19;;;0.88;100.00
61037;BME280;57313;47.040;15.498;2022-11-20T04:18:36;96391.25;;;0.92;100.00
61037;BME280;57313;47.040;15.498;2022-11-20T04:21:05;96397.91;;;0.97;100.00
61037;BME280;57313;47.040;15.498;2022-11-20T04:23:33;96393.41;;;1.02;100.00
61037;BME280;57313;47.040;15.498;2022-11-20T04:26:03;96398.56;;;1.02;100.00
61037;BME280;57313;47.040;15.498;2022-11-20T04:28:31;96409.53;;;1.06;100.00
61037;BME280;57313;47.040;15.498;2022-11-20T04:31:03;96401.81;;;1.07;100.00
61037;BME280;57313;47.040;15.498;2022-11-20T04:33:33;96391.44;;;1.11;100.00
61037;BME280;57313;47.040;15.498;2022-11-20T04:36:02;96389.63;;;1.13;100.00
61037;BME280;57313;47.040;15.498;2022-11-20T04:38:30;96377.75;;;1.10;100.00
61037;BME280;57313;47.040;15.498;2022-11-20T04:40:58;96381.13;;;1.12;100.00
61037;BME280;57313;47.040;15.498;2022-11-20T04:43:25;96375.25;;;1.08;100.00
61037;BME280;57313;47.040;15.498;2022-11-20T04:45:53;96374.31;;;1.11;100.00
61037;BME280;57313;47.040;15.498;2022-11-20T04:48:20;96374.34;;;1.10;100.00
61037;BME280;57313;47.040;15.498;2022-11-20T04:50:49;96372.50;;;1.13;100.00
61037;BME280;57313;47.040;15.498;2022-11-20T04:53:17;96373.34;;;1.14;100.00
61037;BME280;57313;47.040;15.498;2022-11-20T04:55:45;96375.94;;;1.14;100.00
61037;BME280;57313;47.040;15.498;2022-11-20T04:58:13;96376.97;;;1.08;100.00
61037;BME280;57313;47.040;15.498;2022-11-20T05:00:40;96365.16;;;1.04;100.00
61037;BME280;57313;47.040;15.498;2022-11-20T05:03:08;96373.66;;;1.06;100.00
61037;BME280;57313;47.040;15.498;2022-11-20T05:05:35;96370.28;;;1.04;100.00
61037;BME280;57313;47.040;15.498;2022-11-20T05:08:04;96368.63;;;1.03;100.00
61037;BME280;57313;47.040;15.498;2022-11-20T05:10:31;96367.84;;;1.01;100.00
61037;BME280;57313;47.040;15.498;2022-11-20T05:12:59;96372.09;;;1.02;100.00
61037;BME280;57313;47.040;15.498;2022-11-20T05:15:26;96371.09;;;1.06;100.00
61037;BME280;57313;47.040;15.498;2022-11-20T05:17:53;96369.41;;;1.05;100.00
61037;BME280;57313;47.040;15.498;2022-11-20T05:20:21;96377.91;;;1.05;100.00
61037;BME280;57313;47.040;15.498;2022-11-20T05:22:48;96371.38;;;0.98;100.00
61037;BME280;57313;47.040;15.498;2022-11-20T05:25:17;96375.63;;;0.98;100.00
61037;BME280;57313;47.040;15.498;2022-11-20T05:27:44;96370.47;;;0.99;100.00
61037;BME280;57313;47.040;15.498;2022-11-20T05:30:13;96376.56;;;0.97;100.00
61037;BME280;57313;47.040;15.498;2022-11-20T05:32:40;96383.34;;;0.98;100.00
61037;BME280;57313;47.040;15.498;2022-11-20T05:35:07;96379.13;;;0.97;100.00
61037;BME280;57313;47.040;15.498;2022-11-20T05:37:34;96385.00;;;0.99;100.00
61037;BME280;57313;47.040;15.498;2022-11-20T05:40:01;96379.06;;;0.98;100.00
61037;BME280;57313;47.040;15.498;2022-11-20T05:42:31;96375.63;;;0.98;100.00
61037;BME280;57313;47.040;15.498;2022-11-20T05:44:59;96387.53;;;1.00;100.00
61037;BME280;57313;47.040;15.498;2022-11-20T05:47:30;96383.97;;;1.04;100.00
61037;BME280;57313;47.040;15.498;2022-11-20T05:49:58;96389.91;;;1.05;100.00
61037;BME280;57313;47.040;15.498;2022-11-20T05:52:28;96385.63;;;1.05;100.00
61037;BME280;57313;47.040;15.498;2022-11-20T05:54:56;96386.59;;;1.03;100.00
61037;BME280;57313;47.040;15.498;2022-11-20T05:57:23;96396.84;;;1.03;100.00
61037;BME280;57313;47.040;15.498;2022-11-20T05:59:52;96397.78;;;1.00;100.00
61037;BME280;57313;47.040;15.498;2022-11-20T06:02:19;96397.78;;;1.00;100.00
61037;BME280;57313;47.040;15.498;2022-11-20T06:04:47;96399.69;;;0.95;100.00
61037;BME280;57313;47.040;15.498;2022-11-20T06:07:15;96397.19;;;0.94;100.00
61037;BME280;57313;47.040;15.498;2022-11-20T06:09:42;96407.31;;;0.97;100.00
61037;BME280;57313;47.040;15.498;2022-11-20T06:12:10;96400.47;;;0.97;100.00
61037;BME280;57313;47.040;15.498;2022-11-20T06:14:37;96404.69;;;0.98;100.00
61037;BME280;57313;47.040;15.498;2022-11-20T06:17:06;96409.66;;;1.03;100.00
61037;BME280;57313;47.040;15.498;2022-11-20T06:19:34;96407.09;;;1.03;100.00
61037;BME280;57313;47.040;15.498;2022-11-20T06:22:01;96416.38;;;1.05;100.00
61037;BME280;57313;47.040;15.498;2022-11-20T06:24:29;96421.41;;;1.08;100.00
61037;BME280;57313;47.040;15.498;2022-11-20T06:26:57;96414.56;;;1.09;100.00
61037;BME280;57313;47.040;15.498;2022-11-20T06:29:24;96414.69;;;1.06;100.00
61037;BME280;57313;47.040;15.498;2022-11-20T06:31:59;96417.25;;;1.06;100.00
61037;BME280;57313;47.040;15.498;2022-11-20T06:34:28;96419.75;;;1.07;100.00
61037;BME280;57313;47.040;15.498;2022-11-20T06:36:55;96417.94;;;1.10;100.00
61037;BME280;57313;47.040;15.498;2022-11-20T06:39:23;96429.91;;;1.11;100.00
61037;BME280;57313;47.040;15.498;2022-11-20T06:41:51;96431.66;;;1.08;100.00
61037;BME280;57313;47.040;15.498;2022-11-20T06:44:24;96436.78;;;1.08;100.00
61037;BME280;57313;47.040;15.498;2022-11-20T06:46:52;96433.22;;;1.13;100.00
61037;BME280;57313;47.040;15.498;2022-11-20T06:49:19;96433.16;;;1.14;100.00
61037;BME280;57313;47.040;15.498;2022-11-20T06:51:49;96437.41;;;1.15;100.00
61037;BME280;57313;47.040;15.498;2022-11-20T06:54:16;96440.75;;;1.17;100.00
61037;BME280;57313;47.040;15.498;2022-11-20T06:56:46;96434.78;;;1.17;100.00
61037;BME280;57313;47.040;15.498;2022-11-20T06:59:13;96433.81;;;1.19;100.00
61037;BME280;57313;47.040;15.498;2022-11-20T07:01:41;96444.13;;;1.18;100.00
61037;BME280;57313;47.040;15.498;2022-11-20T07:04:08;96431.38;;;1.16;100.00
61037;BME280;57313;47.040;15.498;2022-11-20T07:06:35;96433.00;;;1.19;100.00
61037;BME280;57313;47.040;15.498;2022-11-20T07:09:03;96438.06;;;1.20;100.00
61037;BME280;57313;47.040;15.498;2022-11-20T07:11:38;96437.19;;;1.21;100.00
61037;BME280;57313;47.040;15.498;2022-11-20T07:14:05;96440.47;;;1.25;100.00
61037;BME280;57313;47.040;15.498;2022-11-20T07:16:32;96443.75;;;1.29;100.00
61037;BME280;57313;47.040;15.498;2022-11-20T07:18:59;96447.88;;;1.33;100.00
61037;BME280;57313;47.040;15.498;2022-11-20T07:21:26;96451.16;;;1.36;100.00
61037;BME280;57313;47.040;15.498;2022-11-20T07:23:53;96452.78;;;1.39;100.00
61037;BME280;57313;47.040;15.498;2022-11-20T07:26:22;96447.59;;;1.40;100.00
61037;BME280;57313;47.040;15.498;2022-11-20T07:28:49;96454.28;;;1.45;100.00
61037;BME280;57313;47.040;15.498;2022-11-20T07:31:16;96461.00;;;1.47;100.00
61037;BME280;57313;47.040;15.498;2022-11-20T07:33:45;96459.38;;;1.46;100.00
61037;BME280;57313;47.040;15.498;2022-11-20T07:36:13;96463.91;;;1.38;100.00
61037;BME280;57313;47.040;15.498;2022-11-20T07:38:41;96464.78;;;1.38;100.00
61037;BME280;57313;47.040;15.498;2022-11-20T07:41:08;96466.38;;;1.41;100.00
61037;BME280;57313;47.040;15.498;2022-11-20T07:43:37;96462.03;;;1.43;100.00
61037;BME280;57313;47.040;15.498;2022-11-20T07:46:07;96457.50;;;1.50;100.00
61037;BME280;57313;47.040;15.498;2022-11-20T07:48:34;96465.09;;;1.53;100.00
61037;BME280;57313;47.040;15.498;2022-11-20T07:51:02;96465.97;;;1.52;100.00
61037;BME280;57313;47.040;15.498;2022-11-20T07:53:30;96465.75;;;1.58;100.00
61037;BME280;57313;47.040;15.498;2022-11-20T07:55:59;96475.94;;;1.59;100.00
61037;BME280;57313;47.040;15.498;2022-11-20T07:58:28;96476.66;;;1.63;100.00
61037;BME280;57313;47.040;15.498;2022-11-20T08:00:57;96479.09;;;1.66;100.00
61037;BME280;57313;47.040;15.498;2022-11-20T08:03:24;96474.72;;;1.70;100.00
61037;BME280;57313;47.040;15.498;2022-11-20T08:05:52;96479.03;;;1.68;100.00
61037;BME280;57313;47.040;15.498;2022-11-20T08:08:19;96484.13;;;1.69;100.00
61037;BME280;57313;47.040;15.498;2022-11-20T08:10:46;96494.22;;;1.74;100.00
61037;BME280;57313;47.040;15.498;2022-11-20T08:13:14;96487.44;;;1.73;100.00
61037;BME280;57313;47.040;15.498;2022-11-20T08:15:41;96501.84;;;1.75;100.00
61037;BME280;57313;47.040;15.498;2022-11-20T08:18:16;96493.22;;;1.78;100.00
61037;BME280;57313;47.040;15.498;2022-11-20T08:21:02;96496.31;;;1.86;100.00
61037;BME280;57313;47.040;15.498;2022-11-20T08:23:29;96492.72;;;1.90;100.00
61037;BME280;57313;47.040;15.498;2022-11-20T08:25:57;96491.06;;;1.89;100.00
61037;BME280;57313;47.040;15.498;2022-11-20T08:28:24;96484.03;;;1.94;100.00
61037;BME280;57313;47.040;15.498;2022-11-20T08:30:51;96490.03;;;1.93;100.00
61037;BME280;57313;47.040;15.498;2022-11-20T08:33:26;96487.41;;;1.95;100.00
61037;BME280;57313;47.040;15.498;2022-11-20T08:35:53;96497.56;;;1.98;100.00
61037;BME280;57313;47.040;15.498;2022-11-20T08:38:20;96495.06;;;1.96;100.00
61037;BME280;57313;47.040;15.498;2022-11-20T08:40:47;96499.31;;;1.97;100.00
61037;BME280;57313;47.040;15.498;2022-11-20T08:43:14;96516.25;;;2.02;100.00
61037;BME280;57313;47.040;15.498;2022-11-20T08:45:42;96510.16;;;2.04;100.00
61037;BME280;57313;47.040;15.498;2022-11-20T08:48:09;96508.66;;;1.98;100.00
61037;BME280;57313;47.040;15.498;2022-11-20T08:50:38;96513.03;;;1.96;100.00
61037;BME280;57313;47.040;15.498;2022-11-20T08:53:06;96528.97;;;2.05;100.00
61037;BME280;57313;47.040;15.498;2022-11-20T08:55:33;96516.06;;;2.06;100.00
61037;BME280;57313;47.040;15.498;2022-11-20T08:58:03;96521.22;;;2.06;100.00
61037;BME280;57313;47.040;15.498;2022-11-20T09:00:30;96519.69;;;2.02;100.00
61037;BME280;57313;47.040;15.498;2022-11-20T09:02:57;96514.59;;;2.01;100.00
61037;BME280;57313;47.040;15.498;2022-11-20T09:05:24;96511.84;;;2.05;100.00
61037;BME280;57313;47.040;15.498;2022-11-20T09:07:55;96531.19;;;2.14;100.00
61037;BME280;57313;47.040;15.498;2022-11-20T09:10:22;96523.34;;;2.17;100.00
61037;BME280;57313;47.040;15.498;2022-11-20T09:12:51;96530.06;;;2.21;100.00
61037;BME280;57313;47.040;15.498;2022-11-20T09:15:19;96530.06;;;2.21;100.00
61037;BME280;57313;47.040;15.498;2022-11-20T09:17:51;96526.53;;;2.24;100.00
61037;BME280;57313;47.040;15.498;2022-11-20T09:20:19;96517.78;;;2.28;100.00
61037;BME280;57313;47.040;15.498;2022-11-20T09:22:47;96513.28;;;2.33;100.00
61037;BME280;57313;47.040;15.498;2022-11-20T09:25:16;96518.38;;;2.34;100.00
61037;BME280;57313;47.040;15.498;2022-11-20T09:27:43;96525.91;;;2.39;100.00
61037;BME280;57313;47.040;15.498;2022-11-20T09:30:12;96518.91;;;2.43;100.00
61037;BME280;57313;47.040;15.498;2022-11-20T09:32:40;96516.22;;;2.46;100.00
61037;BME280;57313;47.040;15.498;2022-11-20T09:35:09;96524.75;;;2.46;100.00
61037;BME280;57313;47.040;15.498;2022-11-20T09:37:36;96509.97;;;2.51;100.00
61037;BME280;57313;47.040;15.498;2022-11-20T09:40:05;96504.72;;;2.55;100.00
61037;BME280;57313;47.040;15.498;2022-11-20T09:42:37;96513.97;;;2.59;100.00
61037;BME280;57313;47.040;15.498;2022-11-20T09:45:18;96512.16;;;2.61;100.00
61037;BME280;57313;47.040;15.498;2022-11-20T09:48:02;96507.03;;;2.61;100.00
61037;BME280;57313;47.040;15.498;2022-11-20T09:50:33;96500.75;;;2.68;100.00
61037;BME280;57313;47.040;15.498;2022-11-20T09:53:15;96497.22;;;2.71;100.00
61037;BME280;57313;47.040;15.498;2022-11-20T09:55:45;96491.81;;;2.77;100.00
61037;BME280;57313;47.040;15.498;2022-11-20T09:58:18;96499.41;;;2.80;100.00
61037;BME280;57313;47.040;15.498;2022-11-20T10:00:51;96499.34;;;2.81;100.00
61037;BME280;57313;47.040;15.498;2022-11-20T10:03:28;96498.16;;;2.88;100.00
61037;BME280;57313;47.040;15.498;2022-11-20T10:06:02;96493.88;;;2.89;100.00
61037;BME280;57313;47.040;15.498;2022-11-20T10:08:36;96486.00;;;2.92;100.00
61037;BME280;57313;47.040;15.498;2022-11-20T10:11:13;96494.28;;;2.99;100.00
61037;BME280;57313;47.040;15.498;2022-11-20T10:13:50;96491.53;;;3.03;100.00
61037;BME280;57313;47.040;15.498;2022-11-20T10:16:26;96489.44;;;3.12;100.00
61037;BME280;57313;47.040;15.498;2022-11-20T10:19:18;96493.41;;;3.19;100.00
61037;BME280;57313;47.040;15.498;2022-11-20T10:21:58;96491.59;;;3.21;100.00
61037;BME280;57313;47.040;15.498;2022-11-20T10:24:42;96483.81;;;3.22;100.00
61037;BME280;57313;47.040;15.498;2022-11-20T10:30:10;96479.88;;;3.34;100.00
61037;BME280;57313;47.040;15.498;2022-11-20T10:32:40;96474.53;;;3.39;100.00
61037;BME280;57313;47.040;15.498;2022-11-20T10:35:18;96473.31;;;3.46;100.00
61037;BME280;57313;47.040;15.498;2022-11-20T10:37:51;96482.59;;;3.50;100.00
61037;BME280;57313;47.040;15.498;2022-11-20T10:40:28;96485.84;;;3.54;100.00
61037;BME280;57313;47.040;15.498;2022-11-20T10:42:58;96487.25;;;3.61;100.00
61037;BME280;57313;47.040;15.498;2022-11-20T10:45:38;96480.13;;;3.66;100.00
61037;BME280;57313;47.040;15.498;2022-11-20T10:48:16;96471.38;;;3.70;100.00
61037;BME280;57313;47.040;15.498;2022-11-20T10:53:47;96467.03;;;3.71;100.00
61037;BME280;57313;47.040;15.498;2022-11-20T10:56:20;96471.16;;;3.75;100.00
61037;BME280;57313;47.040;15.498;2022-11-20T10:58:56;96467.56;;;3.77;100.00
61037;BME280;57313;47.040;15.498;2022-11-20T11:01:29;96468.16;;;3.84;100.00
61037;BME280;57313;47.040;15.498;2022-11-20T11:03:57;96471.19;;;3.92;100.00
61037;BME280;57313;47.040;15.498;2022-11-20T11:06:31;96484.53;;;4.01;100.00
61037;BME280;57313;47.040;15.498;2022-11-20T11:09:06;96470.53;;;4.06;100.00
61037;BME280;57313;47.040;15.498;2022-11-20T11:11:38;96460.97;;;4.08;100.00
61037;BME280;57313;47.040;15.498;2022-11-20T11:14:06;96466.84;;;4.12;100.00
61037;BME280;57313;47.040;15.498;2022-11-20T11:16:35;96461.53;;;4.15;100.00
61037;BME280;57313;47.040;15.498;2022-11-20T11:19:06;96464.84;;;4.17;100.00
61037;BME280;57313;47.040;15.498;2022-11-20T11:21:37;96452.72;;;4.19;100.00
61037;BME280;57313;47.040;15.498;2022-11-20T11:24:05;96473.28;;;4.21;100.00
61037;BME280;57313;47.040;15.498;2022-11-20T11:26:55;96460.94;;;4.27;100.00
61037;BME280;57313;47.040;15.498;2022-11-20T11:29:23;96458.34;;;4.27;100.00
61037;BME280;57313;47.040;15.498;2022-11-20T11:32:03;96466.69;;;4.32;100.00
61037;BME280;57313;47.040;15.498;2022-11-20T11:34:31;96460.88;;;4.29;100.00
61037;BME280;57313;47.040;15.498;2022-11-20T11:36:59;96453.56;;;4.37;100.00
61037;BME280;57313;47.040;15.498;2022-11-20T11:39:29;96455.19;;;4.40;100.00
61037;BME280;57313;47.040;15.498;2022-11-20T11:42:02;96461.75;;;4.45;100.00
61037;BME280;57313;47.040;15.498;2022-11-20T11:44:31;96448.56;;;4.52;100.00
61037;BME280;57313;47.040;15.498;2022-11-20T11:47:00;96444.16;;;4.54;100.00
61037;BME280;57313;47.040;15.498;2022-11-20T11:49:29;96450.75;;;4.59;100.00
61037;BME280;57313;47.040;15.498;2022-11-20T11:52:04;96446.03;;;4.67;100.00
61037;BME280;57313;47.040;15.498;2022-11-20T11:54:43;96435.31;;;4.75;100.00
61037;BME280;57313;47.040;15.498;2022-11-20T11:57:19;96429.41;;;4.73;100.00
61037;BME280;57313;47.040;15.498;2022-11-20T12:00:00;96442.31;;;4.73;100.00
61037;BME280;57313;47.040;15.498;2022-11-20T12:02:35;96430.00;;;4.78;100.00
61037;BME280;57313;47.040;15.498;2022-11-20T12:05:13;96433.88;;;4.87;100.00
61037;BME280;57313;47.040;15.498;2022-11-20T12:07:46;96432.19;;;4.86;100.00
61037;BME280;57313;47.040;15.498;2022-11-20T12:10:21;96426.72;;;4.92;100.00
61037;BME280;57313;47.040;15.498;2022-11-20T12:12:53;96430.66;;;4.99;100.00
61037;BME280;57313;47.040;15.498;2022-11-20T12:15:31;96422.34;;;5.10;100.00
61037;BME280;57313;47.040;15.498;2022-11-20T12:18:01;96433.09;;;5.18;100.00
61037;BME280;57313;47.040;15.498;2022-11-20T12:20:33;96425.78;;;5.27;100.00
61037;BME280;57313;47.040;15.498;2022-11-20T12:23:05;96433.94;;;5.35;100.00
61037;BME280;57313;47.040;15.498;2022-11-20T12:25:36;96424.19;;;5.40;100.00
61037;BME280;57313;47.040;15.498;2022-11-20T12:28:35;96424.03;;;5.43;100.00
61037;BME280;57313;47.040;15.498;2022-11-20T12:31:24;96422.28;;;5.44;100.00
61037;BME280;57313;47.040;15.498;2022-11-20T12:34:08;96421.78;;;5.53;100.00
61037;BME280;57313;47.040;15.498;2022-11-20T12:36:44;96423.28;;;5.57;100.00
61037;BME280;57313;47.040;15.498;2022-11-20T12:39:27;96417.03;;;5.61;100.00
61037;BME280;57313;47.040;15.498;2022-11-20T12:42:09;96424.28;;;5.70;100.00
61037;BME280;57313;47.040;15.498;2022-11-20T12:45:02;96416.44;;;5.72;100.00
61037;BME280;57313;47.040;15.498;2022-11-20T12:47:40;96418.78;;;5.77;100.00
61037;BME280;57313;47.040;15.498;2022-11-20T12:50:22;96424.53;;;5.82;100.00
61037;BME280;57313;47.040;15.498;2022-11-20T12:53:04;96414.28;;;5.80;100.00
61037;BME280;57313;47.040;15.498;2022-11-20T12:55:36;96408.66;;;5.88;100.00
61037;BME280;57313;47.040;15.498;2022-11-20T12:58:11;96407.69;;;5.90;100.00
61037;BME280;57313;47.040;15.498;2022-11-20T13:00:50;96408.19;;;5.97;100.00
61037;BME280;57313;47.040;15.498;2022-11-20T13:03:39;96409.69;;;6.01;100.00
61037;BME280;57313;47.040;15.498;2022-11-20T13:06:14;96407.00;;;6.03;100.00
61037;BME280;57313;47.040;15.498;2022-11-20T13:08:47;96419.47;;;6.10;100.00
61037;BME280;57313;47.040;15.498;2022-11-20T13:11:23;96418.75;;;6.08;100.00
61037;BME280;57313;47.040;15.498;2022-11-20T13:14:07;96414.13;;;6.14;100.00